Time;durP1;ratioP1;P1;durP2;ratioP2;P2;SDS_P1;SDS_P2;PMS_P1;PMS_P2;Temp;Humidity;BMP_temperature;BMP_pressure;BME280_temperature;BME280_humidity;BME280_pressure;Samples;Min_cycle;Max_cycle;Signal;HPM_P1;HPM_P2
2022/09/23 00:02:21;;;;;;;13.88;11.65;;;10.50;99.90;;;;;;6182112;23;19997;-71
2022/09/23 00:04:46;;;;;;;12.05;10.82;;;10.50;99.90;;;;;;6181815;23;20080;-71
2022/09/23 00:07:12;;;;;;;14.30;10.88;;;10.50;99.90;;;;;;6181740;23;20025;-71
2022/09/23 00:09:37;;;;;;;13.02;11.57;;;10.50;99.90;;;;;;6181909;23;19997;-71
2022/09/23 00:12:04;;;;;;;12.18;10.95;;;10.40;99.90;;;;;;6181407;23;20004;-72
2022/09/23 00:14:30;;;;;;;15.02;13.43;;;10.30;99.90;;;;;;6182566;23;20342;-72
2022/09/23 00:16:56;;;;;;;14.38;11.50;;;10.30;99.90;;;;;;6181511;23;20001;-73
2022/09/23 00:19:21;;;;;;;13.25;11.63;;;10.30;99.90;;;;;;6182163;23;20005;-72
2022/09/23 00:21:47;;;;;;;13.85;11.13;;;10.30;99.90;;;;;;6181790;23;20009;-72
2022/09/23 00:24:14;;;;;;;12.65;11.32;;;10.30;99.90;;;;;;6181694;23;20013;-72
2022/09/23 00:26:40;;;;;;;11.85;10.55;;;10.30;99.90;;;;;;6181382;23;20005;-72
2022/09/23 00:29:06;;;;;;;14.00;11.93;;;10.30;99.90;;;;;;6181432;23;20342;-72
2022/09/23 00:31:32;;;;;;;16.92;12.15;;;10.30;99.90;;;;;;6182284;23;20036;-72
2022/09/23 00:33:59;;;;;;;13.88;11.23;;;10.20;99.90;;;;;;6181507;23;20009;-72
2022/09/23 00:36:26;;;;;;;15.70;12.00;;;10.20;99.90;;;;;;6182264;23;20037;-72
2022/09/23 00:38:53;;;;;;;15.20;11.15;;;9.90;99.90;;;;;;6183953;23;20303;-72
2022/09/23 00:41:19;;;;;;;15.02;12.05;;;10.20;99.90;;;;;;6183487;23;20083;-72
2022/09/23 00:43:53;;;;;;;11.85;10.57;;;10.20;99.90;;;;;;6183575;23;20005;-72
2022/09/23 00:46:42;;;;;;;13.07;11.60;;;10.10;99.90;;;;;;6183748;23;20055;-72
2022/09/23 00:49:40;;;;;;;13.90;12.20;;;10.20;99.90;;;;;;6183610;23;20032;-72
2022/09/23 00:52:16;;;;;;;14.07;10.77;;;10.40;99.90;;;;;;6118510;23;20023;-72
2022/09/23 00:54:45;;;;;;;12.02;10.77;;;10.20;99.90;;;;;;6183411;23;20001;-71
2022/09/23 00:57:12;;;;;;;13.23;10.73;;;10.20;99.90;;;;;;6183768;23;20005;-71
2022/09/23 00:59:37;;;;;;;15.32;12.88;;;10.20;99.90;;;;;;6183665;23;20063;-72
2022/09/23 01:02:04;;;;;;;13.60;12.20;;;10.00;99.90;;;;;;6183503;23;20358;-72
2022/09/23 01:04:30;;;;;;;13.90;12.07;;;10.10;99.90;;;;;;6183706;23;20009;-72
2022/09/23 01:06:56;;;;;;;14.25;12.73;;;10.10;99.90;;;;;;6183603;23;20812;-71
2022/09/23 01:09:22;;;;;;;14.18;11.63;;;10.10;99.90;;;;;;6183156;23;19997;-71
2022/09/23 01:12:17;;;;;;;13.07;11.75;;;10.00;99.90;;;;;;6182301;23;20375;-71
2022/09/23 01:14:42;;;;;;;;;;;10.00;99.90;;;;;;6170533;23;20009;-72
2022/09/23 01:17:27;;;;;;;13.75;11.38;;;9.90;99.90;;;;;;6181064;23;19923;-72
2022/09/23 01:20:19;;;;;;;13.85;11.02;;;9.90;99.90;;;;;;6182430;23;20007;-72
2022/09/23 01:22:55;;;;;;;13.68;11.60;;;9.90;99.90;;;;;;6182771;23;19997;-71
2022/09/23 01:25:49;;;;;;;13.60;11.70;;;9.90;99.90;;;;;;6183201;23;20005;-72
2022/09/23 01:28:42;;;;;;;15.25;12.45;;;9.80;99.90;;;;;;6183335;23;20035;-72
2022/09/23 01:31:23;;;;;;;18.98;13.00;;;9.80;99.90;;;;;;6182426;23;20069;-71
2022/09/23 01:33:56;;;;;;;17.70;13.45;;;9.80;99.90;;;;;;6182566;23;20512;-71
2022/09/23 01:36:24;;;;;;;19.10;14.50;;;9.80;99.90;;;;;;6183032;23;20004;-72
2022/09/23 01:39:02;;;;;;;15.00;12.83;;;9.80;99.90;;;;;;6181993;23;20052;-71
2022/09/23 01:41:44;;;;;;;14.63;12.70;;;9.80;99.90;;;;;;6182885;23;20724;-72
2022/09/23 01:44:39;;;;;;;17.23;12.20;;;9.70;99.90;;;;;;6182484;23;20013;-72
2022/09/23 01:47:13;;;;;;;;;;;9.70;99.90;;;;;;6177235;23;20011;-71
2022/09/23 01:49:59;;;;;;;18.23;12.70;;;9.70;99.90;;;;;;6182887;23;19923;-72
2022/09/23 01:52:40;;;;;;;16.27;12.27;;;9.60;99.90;;;;;;6182080;23;20435;-71
2022/09/23 01:55:09;;;;;;;15.23;11.67;;;9.60;99.90;;;;;;6182377;23;20001;-72
2022/09/23 01:57:43;;;;;;;17.13;12.10;;;9.50;99.90;;;;;;6182836;23;20004;-72
2022/09/23 02:00:13;;;;;;;13.90;12.30;;;9.50;99.90;;;;;;6182354;23;20076;-72
2022/09/23 02:02:48;;;;;;;17.63;12.30;;;9.30;99.90;;;;;;6182839;23;20001;-72
2022/09/23 02:05:26;;;;;;;13.80;12.40;;;9.40;99.90;;;;;;6180589;23;20439;-72
2022/09/23 02:07:58;;;;;;;16.83;12.68;;;9.40;99.90;;;;;;6181731;23;20005;-72
2022/09/23 02:10:31;;;;;;;14.98;13.27;;;9.40;99.90;;;;;;6182831;23;20057;-73
2022/09/23 02:13:04;;;;;;;15.73;13.98;;;9.40;99.90;;;;;;6182319;23;20051;-72
2022/09/23 02:15:46;;;;;;;15.97;14.00;;;9.30;99.90;;;;;;6182767;23;20076;-73
2022/09/23 02:18:15;;;;;;;15.48;13.07;;;9.30;99.90;;;;;;6182903;23;20001;-73
2022/09/23 02:20:43;;;;;;;13.95;12.55;;;9.30;99.90;;;;;;6181038;23;20004;-72
2022/09/23 02:23:15;;;;;;;16.08;13.93;;;10.00;99.90;;;;;;6181639;23;20055;-72
2022/09/23 02:26:00;;;;;;;14.60;13.07;;;10.20;99.90;;;;;;6182579;23;20029;-73
2022/09/23 02:28:30;;;;;;;;;;;9.30;99.90;;;;;;6182872;23;20009;-72
2022/09/23 02:31:20;;;;;;;15.77;14.07;;;9.30;99.90;;;;;;6181908;23;19946;-72
2022/09/23 02:34:11;;;;;;;14.25;12.63;;;9.40;99.90;;;;;;6182483;23;20024;-72
2022/09/23 02:36:52;;;;;;;16.60;14.30;;;9.40;99.90;;;;;;6181883;23;20155;-72
2022/09/23 02:39:21;;;;;;;18.88;13.50;;;9.40;99.90;;;;;;6182697;23;20462;-71
2022/09/23 02:42:06;;;;;;;15.60;13.70;;;9.50;99.90;;;;;;6182372;23;20009;-72
2022/09/23 02:44:32;;;;;;;17.02;14.02;;;9.50;99.90;;;;;;6182485;23;20004;-72
2022/09/23 02:46:58;;;;;;;16.00;13.20;;;9.30;99.90;;;;;;6181452;23;20009;-72
2022/09/23 02:49:29;;;;;;;15.77;14.13;;;9.40;99.90;;;;;;6180952;23;20408;-71
2022/09/23 02:51:58;;;;;;;15.70;13.40;;;9.50;99.90;;;;;;6179438;23;20001;-73
2022/09/23 02:54:27;;;;;;;16.27;14.57;;;9.50;99.90;;;;;;6182081;23;20037;-73
2022/09/23 02:56:54;;;;;;;18.33;14.63;;;9.50;99.90;;;;;;6181040;23;20005;-73
2022/09/23 02:59:22;;;;;;;18.75;14.45;;;9.40;99.90;;;;;;6182225;23;20005;-72
2022/09/23 03:02:13;;;;;;;18.05;14.02;;;9.40;99.90;;;;;;6182243;23;20091;-73
2022/09/23 03:04:49;;;;;;;19.57;14.63;;;9.50;99.90;;;;;;6179818;23;20001;-72
2022/09/23 03:07:25;;;;;;;16.60;14.97;;;9.40;99.90;;;;;;6181853;23;20005;-73
2022/09/23 03:10:15;;;;;;;16.20;14.20;;;9.40;99.90;;;;;;6182074;23;20453;-73
2022/09/23 03:12:58;;;;;;;16.13;13.18;;;9.50;99.90;;;;;;6182091;23;19997;-73
2022/09/23 03:15:36;;;;;;;18.77;14.57;;;9.20;99.90;;;;;;6182259;23;20025;-72
2022/09/23 03:18:18;;;;;;;14.98;13.32;;;9.40;99.90;;;;;;6181862;23;20001;-72
2022/09/23 03:20:58;;;;;;;15.25;13.60;;;9.30;99.90;;;;;;6181465;23;20001;-73
2022/09/23 03:23:33;;;;;;;17.90;13.07;;;9.40;99.90;;;;;;6182217;23;20087;-73
2022/09/23 03:26:11;;;;;;;14.65;13.20;;;9.80;99.90;;;;;;6180193;23;20311;-73
2022/09/23 03:28:42;;;;;;;17.30;15.15;;;9.30;99.90;;;;;;6181854;23;20071;-74
2022/09/23 03:31:09;;;;;;;16.73;13.55;;;9.30;99.90;;;;;;6181708;23;20001;-72
2022/09/23 03:33:37;;;;;;;14.95;13.40;;;9.30;99.90;;;;;;6181517;23;20176;-72
2022/09/23 03:39:13;;;;;;;18.87;13.27;;;9.20;99.90;;;;;;6181500;23;20088;-71
2022/09/23 03:41:49;;;;;;;14.23;12.82;;;9.20;99.90;;;;;;6182156;23;19999;-73
2022/09/23 03:44:16;;;;;;;17.90;14.83;;;9.30;99.90;;;;;;6181836;23;20027;-74
2022/09/23 03:46:48;;;;;;;17.43;13.60;;;9.20;99.90;;;;;;6181798;23;20001;-73
2022/09/23 03:49:18;;;;;;;16.00;13.83;;;9.20;99.90;;;;;;6181306;23;20001;-73
2022/09/23 03:51:47;;;;;;;15.63;14.07;;;9.20;99.90;;;;;;6180145;23;20079;-73
2022/09/23 03:54:13;;;;;;;19.50;14.52;;;9.20;99.90;;;;;;6181695;23;20009;-73
2022/09/23 03:56:38;;;;;;;15.23;13.63;;;9.20;99.90;;;;;;6181948;23;20059;-72
2022/09/23 03:59:04;;;;;;;16.63;14.80;;;9.80;99.90;;;;;;6180088;23;20013;-73
2022/09/23 04:01:29;;;;;;;17.03;15.00;;;9.20;99.90;;;;;;6181655;23;20005;-73
2022/09/23 04:03:55;;;;;;;17.13;15.27;;;9.30;99.90;;;;;;6179902;23;20338;-73
2022/09/23 04:06:21;;;;;;;17.63;14.90;;;9.20;99.90;;;;;;6181624;23;20005;-71
2022/09/23 04:08:46;;;;;;;19.33;15.53;;;9.30;99.90;;;;;;6181486;23;20008;-71
2022/09/23 04:11:12;;;;;;;15.70;14.10;;;9.30;99.90;;;;;;6181739;23;20450;-71
2022/09/23 04:13:37;;;;;;;16.07;14.50;;;9.30;99.90;;;;;;6182262;23;20037;-69
2022/09/23 04:16:03;;;;;;;19.23;14.20;;;9.20;99.90;;;;;;6183476;23;20001;-70
2022/09/23 04:18:30;;;;;;;16.53;14.03;;;9.20;99.90;;;;;;6183296;23;20076;-70
2022/09/23 04:20:58;;;;;;;15.90;14.30;;;9.30;99.90;;;;;;6182969;23;20071;-71
2022/09/23 04:23:27;;;;;;;18.17;16.20;;;9.20;99.90;;;;;;6183547;23;20012;-70
2022/09/23 04:25:52;;;;;;;16.00;14.03;;;9.20;99.90;;;;;;6183140;23;20012;-71
2022/09/23 04:28:18;;;;;;;20.03;14.97;;;9.30;99.90;;;;;;6183601;23;20017;-70
2022/09/23 04:30:45;;;;;;;17.37;14.90;;;9.30;99.90;;;;;;6183427;23;20009;-71
2022/09/23 04:33:12;;;;;;;18.93;14.83;;;9.30;99.90;;;;;;6182886;23;20005;-70
2022/09/23 04:35:39;;;;;;;15.40;13.90;;;9.20;99.90;;;;;;6183859;23;20001;-70
2022/09/23 04:38:05;;;;;;;16.75;14.95;;;9.30;99.90;;;;;;6183300;23;20013;-73
2022/09/23 04:40:32;;;;;;;16.77;14.27;;;9.30;99.90;;;;;;6183508;23;20067;-73
2022/09/23 04:42:57;;;;;;;19.02;15.23;;;9.40;99.90;;;;;;6183171;23;20763;-73
2022/09/23 04:45:23;;;;;;;18.70;15.15;;;9.30;99.90;;;;;;6181874;23;20037;-72
2022/09/23 04:47:49;;;;;;;16.43;14.30;;;9.40;99.90;;;;;;6183240;23;20716;-71
2022/09/23 04:50:15;;;;;;;16.58;14.60;;;9.30;99.90;;;;;;6183887;23;20029;-73
2022/09/23 04:52:40;;;;;;;16.53;14.93;;;9.40;99.90;;;;;;6183251;23;20032;-73
2022/09/23 04:55:07;;;;;;;16.33;14.63;;;9.20;99.90;;;;;;6183084;23;20009;-73
2022/09/23 04:57:33;;;;;;;16.65;14.85;;;9.30;99.90;;;;;;6183510;23;20005;-73
2022/09/23 04:59:59;;;;;;;16.37;14.70;;;9.30;99.90;;;;;;6182450;23;20079;-73
2022/09/23 05:02:27;;;;;;;19.00;15.07;;;9.30;99.90;;;;;;6182804;23;20081;-73
2022/09/23 05:04:52;;;;;;;15.97;13.53;;;9.40;99.90;;;;;;6182635;23;20108;-73
2022/09/23 05:07:18;;;;;;;16.37;14.33;;;9.40;99.90;;;;;;6183239;23;20061;-73
2022/09/23 05:09:44;;;;;;;15.13;13.53;;;9.30;99.90;;;;;;6183022;23;19998;-73
2022/09/23 05:12:10;;;;;;;16.13;13.48;;;8.40;99.90;;;;;;6182982;23;20005;-73
2022/09/23 05:14:39;;;;;;;19.43;14.80;;;9.40;99.90;;;;;;6183321;23;20062;-73
2022/09/23 05:17:05;;;;;;;16.65;14.98;;;9.40;99.90;;;;;;6182157;23;20080;-73
2022/09/23 05:19:30;;;;;;;15.35;13.25;;;9.40;99.90;;;;;;6183106;23;20015;-74
2022/09/23 05:21:56;;;;;;;16.60;14.97;;;9.50;99.90;;;;;;6182048;23;20403;-73
2022/09/23 05:24:23;;;;;;;18.00;15.57;;;9.40;99.90;;;;;;6183068;23;20013;-73
2022/09/23 05:26:49;;;;;;;15.35;13.65;;;9.50;99.90;;;;;;6182780;23;20007;-73
2022/09/23 05:29:16;;;;;;;16.77;14.68;;;9.50;99.90;;;;;;6182572;23;20096;-73
2022/09/23 05:31:41;;;;;;;15.68;13.50;;;9.50;99.90;;;;;;6182408;23;20307;-72
2022/09/23 05:34:07;;;;;;;16.97;15.23;;;9.50;99.90;;;;;;6182473;23;20043;-73
2022/09/23 05:36:35;;;;;;;18.05;13.85;;;9.50;99.90;;;;;;6183570;23;20546;-73
2022/09/23 05:39:00;;;;;;;15.77;13.35;;;9.60;99.90;;;;;;6182210;23;20001;-72
2022/09/23 05:41:26;;;;;;;15.47;13.30;;;9.40;99.90;;;;;;6182843;23;20415;-73
2022/09/23 05:43:53;;;;;;;17.53;14.00;;;9.60;99.90;;;;;;6182182;23;20005;-72
2022/09/23 05:46:21;;;;;;;16.97;15.17;;;9.60;99.90;;;;;;6182984;23;19997;-73
2022/09/23 05:48:47;;;;;;;19.57;15.20;;;10.90;99.90;;;;;;6182792;23;20001;-73
2022/09/23 05:51:21;;;;;;;14.90;13.27;;;9.60;99.90;;;;;;6181238;23;20008;-72
2022/09/23 05:53:51;;;;;;;14.30;12.90;;;9.70;99.90;;;;;;6181212;23;20430;-73
2022/09/23 05:56:21;;;;;;;17.13;14.53;;;9.60;99.90;;;;;;6182650;23;20005;-73
2022/09/23 05:58:49;;;;;;;18.10;15.23;;;9.80;99.90;;;;;;6181315;23;20047;-73
2022/09/23 06:01:17;;;;;;;16.90;14.23;;;9.70;99.90;;;;;;6182393;23;20342;-73
2022/09/23 06:03:48;;;;;;;15.47;13.87;;;9.70;99.90;;;;;;6182340;23;20012;-72
2022/09/23 06:06:19;;;;;;;14.68;13.30;;;9.80;99.90;;;;;;6181982;23;20009;-73
2022/09/23 06:08:46;;;;;;;15.60;13.90;;;9.80;99.90;;;;;;6182467;23;20013;-72
2022/09/23 06:11:12;;;;;;;17.00;14.73;;;9.90;99.90;;;;;;6182170;23;20005;-72
2022/09/23 06:13:38;;;;;;;16.65;14.07;;;9.90;99.90;;;;;;6181342;23;20008;-72
2022/09/23 06:16:12;;;;;;;14.57;13.00;;;9.90;99.90;;;;;;6180113;23;20001;-73
2022/09/23 06:18:42;;;;;;;17.42;14.25;;;10.00;99.90;;;;;;6182322;23;20296;-73
2022/09/23 06:21:12;;;;;;;14.63;13.13;;;10.00;99.90;;;;;;6180005;23;20088;-73
2022/09/23 06:23:38;;;;;;;17.37;14.87;;;10.20;99.90;;;;;;6181863;23;20005;-73
2022/09/23 06:26:05;;;;;;;18.70;14.85;;;10.20;99.90;;;;;;6181599;23;20005;-72
2022/09/23 06:28:33;;;;;;;18.80;14.47;;;10.20;99.90;;;;;;6181484;23;20410;-73
2022/09/23 06:31:02;;;;;;;15.77;14.07;;;10.20;99.90;;;;;;6181475;23;20419;-72
2022/09/23 06:33:28;;;;;;;19.50;13.65;;;10.30;99.90;;;;;;6181579;23;19997;-72
2022/09/23 06:36:01;;;;;;;16.23;12.35;;;10.40;99.90;;;;;;6181064;23;20008;-71
2022/09/23 06:38:28;;;;;;;14.40;12.32;;;10.40;99.90;;;;;;6182018;23;20032;-72
2022/09/23 06:40:55;;;;;;;15.40;13.23;;;10.40;99.90;;;;;;6181561;23;20036;-72
2022/09/23 06:43:22;;;;;;;14.50;13.05;;;10.60;99.90;;;;;;6181663;23;20331;-71
2022/09/23 06:45:54;;;;;;;17.80;13.95;;;10.70;99.90;;;;;;6181738;23;20076;-72
2022/09/23 06:48:20;;;;;;;17.02;12.57;;;10.60;99.90;;;;;;6182325;23;20419;-72
2022/09/23 06:50:47;;;;;;;16.70;13.10;;;10.70;99.90;;;;;;6181547;23;20426;-71
2022/09/23 06:53:12;;;;;;;16.52;12.50;;;10.70;99.90;;;;;;6181881;23;20151;-71
2022/09/23 06:55:38;;;;;;;18.95;12.65;;;10.80;99.90;;;;;;6181966;23;20037;-71
2022/09/23 06:58:04;;;;;;;13.15;11.80;;;10.80;99.90;;;;;;6181185;23;20150;-71
2022/09/23 07:00:29;;;;;;;16.42;13.55;;;10.80;99.90;;;;;;6180110;23;20009;-71
2022/09/23 07:02:55;;;;;;;17.55;12.98;;;10.90;99.90;;;;;;6181358;23;20256;-70
2022/09/23 07:05:21;;;;;;;15.43;13.63;;;10.90;99.90;;;;;;6181952;23;20039;-71
2022/09/23 07:07:47;;;;;;;17.50;12.82;;;10.90;99.90;;;;;;6181071;23;20023;-71
2022/09/23 07:10:13;;;;;;;18.65;12.65;;;10.90;99.90;;;;;;6180806;23;20029;-71
2022/09/23 07:12:39;;;;;;;18.23;12.48;;;11.80;99.90;;;;;;6179823;23;20008;-70
2022/09/23 07:15:05;;;;;;;22.63;14.50;;;11.00;99.90;;;;;;6180654;23;20307;-71
2022/09/23 07:17:31;;;;;;;16.58;12.85;;;11.00;99.90;;;;;;6179237;23;20431;-71
2022/09/23 07:19:57;;;;;;;17.50;12.68;;;11.00;99.90;;;;;;6180755;23;20076;-71
2022/09/23 07:22:23;;;;;;;13.63;11.13;;;11.10;99.90;;;;;;6181107;23;20001;-71
2022/09/23 07:24:50;;;;;;;16.67;12.63;;;11.20;99.90;;;;;;6180482;23;20033;-71
2022/09/23 07:27:18;;;;;;;15.15;12.60;;;11.20;99.90;;;;;;6180534;23;20008;-71
2022/09/23 07:29:47;;;;;;;16.55;12.27;;;11.10;99.90;;;;;;6180447;23;20024;-71
2022/09/23 07:32:13;;;;;;;17.00;11.95;;;11.20;99.90;;;;;;6180778;23;20346;-70
2022/09/23 07:34:38;;;;;;;14.25;12.60;;;11.20;99.90;;;;;;6180230;23;20001;-70
2022/09/23 07:37:04;;;;;;;16.98;10.98;;;11.90;99.90;;;;;;6180462;23;20505;-70
2022/09/23 07:39:30;;;;;;;14.30;12.52;;;11.20;99.90;;;;;;6180703;23;20008;-70
2022/09/23 07:41:55;;;;;;;17.15;12.18;;;11.10;99.90;;;;;;6178354;23;20419;-70
2022/09/23 07:44:21;;;;;;;14.77;11.18;;;11.30;99.90;;;;;;6180970;23;20374;-71
2022/09/23 07:46:48;;;;;;;16.45;11.85;;;11.30;99.90;;;;;;6180651;23;20080;-71
2022/09/23 07:49:14;;;;;;;12.25;11.05;;;11.50;99.90;;;;;;6180768;23;20056;-71
2022/09/23 07:51:44;;;;;;;13.85;12.20;;;11.50;99.90;;;;;;6180991;23;20005;-70
2022/09/23 07:54:13;;;;;;;14.30;12.27;;;11.50;99.90;;;;;;6180875;23;20009;-71
2022/09/23 07:56:39;;;;;;;13.80;11.35;;;11.70;99.90;;;;;;6180314;23;20058;-70
2022/09/23 07:59:07;;;;;;;13.40;12.10;;;11.70;99.90;;;;;;6180666;23;20004;-71
2022/09/23 08:01:44;;;;;;;13.80;12.15;;;11.80;99.90;;;;;;6180930;23;20012;-71
2022/09/23 08:04:13;;;;;;;15.05;11.73;;;12.00;99.90;;;;;;6180457;23;20009;-71
2022/09/23 08:06:47;;;;;;;14.13;10.95;;;12.10;99.90;;;;;;6181254;23;20029;-71
2022/09/23 08:09:13;;;;;;;;;;;12.20;99.90;;;;;;6181755;23;20005;-69
2022/09/23 08:11:40;;;;;;;14.00;11.93;;;12.30;99.90;;;;;;6181301;23;19927;-71
2022/09/23 08:14:17;;;;;;;13.27;11.77;;;12.20;99.90;;;;;;6179595;23;20009;-70
2022/09/23 08:16:44;;;;;;;16.02;13.00;;;12.50;99.90;;;;;;6181321;23;20001;-71
2022/09/23 08:19:10;;;;;;;13.50;10.93;;;12.60;99.90;;;;;;6181016;23;20434;-71
2022/09/23 08:21:38;;;;;;;14.23;11.35;;;12.70;99.90;;;;;;6181662;23;20005;-72
2022/09/23 08:24:04;;;;;;;12.40;11.05;;;12.90;99.90;;;;;;6180305;23;20005;-71
2022/09/23 08:26:33;;;;;;;12.20;10.25;;;12.90;99.90;;;;;;6181608;23;20033;-71
2022/09/23 08:28:59;;;;;;;15.27;11.55;;;13.00;99.90;;;;;;6180762;23;20088;-71
2022/09/23 08:31:25;;;;;;;14.93;10.75;;;13.80;99.90;;;;;;6181465;23;20028;-71
2022/09/23 08:33:57;;;;;;;13.65;12.10;;;13.20;99.90;;;;;;6180945;23;20004;-71
2022/09/23 08:36:24;;;;;;;13.50;11.57;;;13.30;99.90;;;;;;6181489;23;20005;-71
2022/09/23 08:38:50;;;;;;;15.77;10.93;;;13.40;99.90;;;;;;6180024;23;20004;-71
2022/09/23 08:41:21;;;;;;;13.27;11.73;;;13.50;99.90;;;;;;6180910;23;19998;-73
2022/09/23 08:43:50;;;;;;;15.15;11.88;;;13.60;99.90;;;;;;6181161;23;20028;-71
2022/09/23 08:46:25;;;;;;;12.23;11.00;;;13.70;99.90;;;;;;6181091;23;20012;-71
2022/09/23 08:48:52;;;;;;;12.35;11.15;;;13.70;99.90;;;;;;6181050;23;20478;-71
2022/09/23 08:51:45;;;;;;;12.88;11.30;;;13.70;99.90;;;;;;6180983;23;20028;-71
2022/09/23 08:54:12;;;;;;;12.98;11.45;;;13.90;99.90;;;;;;6175714;23;20020;-71
2022/09/23 08:56:39;;;;;;;12.25;10.98;;;13.90;99.90;;;;;;6181048;23;20013;-71
2022/09/23 08:59:13;;;;;;;12.43;10.88;;;14.00;99.90;;;;;;6181372;23;20790;-71
2022/09/23 09:01:43;;;;;;;11.15;10.05;;;14.10;99.90;;;;;;6182775;23;19993;-71
2022/09/23 09:04:26;;;;;;;14.10;10.98;;;14.20;99.90;;;;;;6182745;23;20005;-71
2022/09/23 09:07:03;;;;;;;12.13;10.40;;;14.30;99.90;;;;;;6182243;23;20001;-73
2022/09/23 09:09:36;;;;;;;12.63;10.27;;;14.50;99.90;;;;;;6183147;23;19997;-71
2022/09/23 09:12:08;;;;;;;10.88;9.57;;;14.50;99.90;;;;;;6182915;23;20029;-72
2022/09/23 09:14:47;;;;;;;10.80;9.73;;;14.70;99.90;;;;;;6182935;23;20037;-71
2022/09/23 09:17:23;;;;;;;10.65;9.65;;;14.80;99.90;;;;;;6182913;23;20005;-71
2022/09/23 09:19:54;;;;;;;11.80;9.63;;;14.90;99.90;;;;;;6182487;23;20040;-71
2022/09/23 09:22:46;;;;;;;12.07;10.55;;;15.00;99.90;;;;;;6182364;23;20005;-71
2022/09/23 09:25:21;;;;;;;10.50;9.50;;;15.00;99.90;;;;;;6127949;23;20009;-72
2022/09/23 09:27:47;;;;;;;13.13;10.52;;;15.10;99.90;;;;;;6182441;23;20080;-72
2022/09/23 09:30:21;;;;;;;10.07;8.38;;;15.20;99.90;;;;;;6182581;23;20073;-72
2022/09/23 09:32:53;;;;;;;12.35;9.43;;;15.50;99.90;;;;;;6182051;23;20073;-72
2022/09/23 09:36:00;;;;;;;10.85;9.10;;;15.40;99.90;;;;;;6182722;23;20012;-72
2022/09/23 09:38:27;;;;;;;10.52;9.23;;;15.40;99.90;;;;;;6181826;23;20036;-72
2022/09/23 09:40:54;;;;;;;11.38;8.80;;;15.50;99.90;;;;;;6182005;23;20079;-69
2022/09/23 09:43:22;;;;;;;10.90;8.60;;;15.50;99.90;;;;;;6182475;23;20008;-69
2022/09/23 09:46:35;;;;;;;13.00;8.43;;;15.60;99.90;;;;;;6182034;23;20303;-70
2022/09/23 09:49:06;;;;;;;10.68;8.30;;;15.70;99.90;;;;;;6060983;23;20177;-71
2022/09/23 09:51:32;;;;;;;13.35;8.02;;;15.80;99.90;;;;;;6061126;23;20007;-71
2022/09/23 09:54:25;;;;;;;10.40;8.88;;;15.90;99.90;;;;;;6061330;23;20392;-71
2022/09/23 09:56:52;;;;;;;12.82;9.07;;;16.00;99.90;;;;;;6061957;23;20034;-71
2022/09/23 09:59:27;;;;;;;9.95;8.95;;;16.00;99.90;;;;;;6062372;23;20466;-71
2022/09/23 10:02:25;;;;;;;11.20;9.55;;;16.00;99.90;;;;;;6061811;23;20007;-72
2022/09/23 10:05:04;;;;;;;11.07;8.88;;;16.10;99.90;;;;;;6061682;23;20104;-71
2022/09/23 10:07:32;;;;;;;10.00;8.20;;;16.10;99.90;;;;;;6062231;23;20010;-71
2022/09/23 10:10:09;;;;;;;12.45;8.05;;;16.00;99.90;;;;;;6061840;23;20099;-71
2022/09/23 10:12:45;;;;;;;9.93;9.00;;;16.20;99.90;;;;;;6062496;23;20003;-71
2022/09/23 10:15:31;;;;;;;10.38;8.07;;;16.20;99.90;;;;;;6062018;23;20045;-72
2022/09/23 10:18:00;;;;;;;10.15;8.43;;;16.30;99.90;;;;;;6061679;23;20010;-72
2022/09/23 10:20:34;;;;;;;10.57;8.25;;;16.30;99.90;;;;;;6162189;23;20080;-72
2022/09/23 10:23:13;;;;;;;9.63;8.63;;;16.90;99.90;;;;;;6181630;23;20422;-71
2022/09/23 10:25:40;;;;;;;9.02;8.13;;;16.30;99.90;;;;;;6179981;23;20005;-72
2022/09/23 10:28:37;;;;;;;15.43;9.10;;;16.40;99.90;;;;;;6181652;23;20350;-72
2022/09/23 10:31:05;;;;;;;10.45;9.43;;;16.40;99.90;;;;;;6180080;23;20080;-73
2022/09/23 10:33:30;;;;;;;9.52;8.52;;;16.40;99.90;;;;;;6182277;23;20001;-72
2022/09/23 10:35:56;;;;;;;9.38;8.57;;;16.70;99.90;;;;;;6181364;23;20005;-72
2022/09/23 10:38:22;;;;;;;8.82;7.85;;;16.60;99.90;;;;;;6182285;23;20007;-72
2022/09/23 10:47:18;;;;;;;8.52;7.13;;;16.90;99.60;;;;;;6181875;23;20015;-72
2022/09/23 10:49:51;;;;;;;9.98;7.30;;;17.00;99.40;;;;;;6181273;23;20094;-72
2022/09/23 10:52:38;;;;;;;12.43;7.65;;;17.30;99.50;;;;;;6182045;23;19997;-72
2022/09/23 10:55:07;;;;;;;8.80;6.97;;;17.20;99.00;;;;;;6181442;23;20837;-72
2022/09/23 10:57:45;;;;;;;8.23;7.45;;;17.30;98.30;;;;;;6181977;23;20016;-72
2022/09/23 11:00:50;;;;;;;8.60;7.90;;;17.40;99.20;;;;;;6181277;23;20060;-72
2022/09/23 11:03:55;;;;;;;9.20;8.02;;;17.40;98.20;;;;;;6180545;23;20204;-72
2022/09/23 11:06:50;;;;;;;8.57;7.68;;;17.50;98.20;;;;;;6181608;23;20001;-72
2022/09/23 11:09:21;;;;;;;9.23;7.90;;;17.50;98.20;;;;;;6181315;23;20004;-72
2022/09/23 11:12:21;;;;;;;8.70;7.82;;;17.50;98.00;;;;;;6181465;23;20028;-71
2022/09/23 11:14:56;;;;;;;8.05;7.28;;;17.60;97.90;;;;;;6135642;23;20047;-72
2022/09/23 11:17:34;;;;;;;10.20;7.97;;;17.50;97.50;;;;;;6181347;23;19997;-71
2022/09/23 11:20:26;;;;;;;9.13;7.88;;;17.60;98.70;;;;;;6180537;23;20001;-72
2022/09/23 11:23:06;;;;;;;9.15;8.25;;;17.50;97.90;;;;;;6180939;23;20371;-71
2022/09/23 11:26:00;;;;;;;10.55;6.95;;;17.50;97.50;;;;;;6181519;23;20310;-72
2022/09/23 11:28:29;;;;;;;;;;;17.60;98.70;;;;;;6182069;23;20343;-72
2022/09/23 11:31:16;;;;;;;7.88;7.07;;;17.60;98.10;;;;;;6181142;23;19904;-72
2022/09/23 11:33:57;;;;;;;8.38;7.57;;;17.70;97.80;;;;;;6179441;23;20024;-72
2022/09/23 11:36:38;;;;;;;8.15;7.35;;;17.80;97.70;;;;;;6181768;23;20032;-70
2022/09/23 11:39:23;;;;;;;8.30;7.43;;;17.80;97.50;;;;;;6181267;23;20057;-71
2022/09/23 11:41:53;;;;;;;12.02;8.32;;;17.80;97.40;;;;;;6181381;23;20001;-70
2022/09/23 11:44:28;;;;;;;10.70;8.63;;;17.80;97.90;;;;;;6180870;23;20005;-71
2022/09/23 11:47:25;;;;;;;8.55;7.75;;;17.80;98.00;;;;;;6180969;23;20005;-70
2022/09/23 11:50:04;;;;;;;8.80;8.00;;;17.90;97.40;;;;;;6181300;23;20001;-70
2022/09/23 11:52:40;;;;;;;8.73;7.90;;;17.90;97.20;;;;;;6179772;23;20001;-70
2022/09/23 11:55:21;;;;;;;11.25;8.18;;;18.00;98.10;;;;;;6181233;23;20009;-70
2022/09/23 11:57:52;;;;;;;10.90;7.70;;;17.90;97.30;;;;;;6181418;23;20005;-71
2022/09/23 12:00:21;;;;;;;9.15;7.82;;;18.10;97.90;;;;;;6181327;23;20008;-70
2022/09/23 12:02:54;;;;;;;9.50;8.55;;;18.00;97.60;;;;;;6180621;23;20005;-70
2022/09/23 12:05:24;;;;;;;9.10;8.30;;;18.10;96.60;;;;;;6181495;23;20084;-71
2022/09/23 12:07:53;;;;;;;9.52;8.52;;;18.10;97.60;;;;;;6181156;23;20001;-71
2022/09/23 12:10:21;;;;;;;10.90;8.50;;;18.20;97.30;;;;;;6181202;23;20005;-71
2022/09/23 12:13:19;;;;;;;9.15;8.35;;;18.40;97.50;;;;;;6181430;23;20083;-70
2022/09/23 12:16:12;;;;;;;8.70;7.90;;;18.30;97.50;;;;;;6179958;23;20012;-70
2022/09/23 12:19:20;;;;;;;7.37;6.03;;;18.20;96.60;;;;;;6181356;23;20001;-71
2022/09/23 12:22:16;;;;;;;9.70;8.80;;;18.40;96.50;;;;;;6135990;23;20279;-71
2022/09/23 12:25:26;;;;;;;10.05;8.82;;;18.60;96.40;;;;;;6181092;23;20005;-72
2022/09/23 12:27:54;;;;;;;12.55;8.55;;;18.60;96.20;;;;;;6181094;23;20005;-71
2022/09/23 12:30:28;;;;;;;10.88;9.75;;;19.60;96.90;;;;;;6180908;23;20005;-71
2022/09/23 12:33:25;;;;;;;9.65;8.52;;;18.80;96.60;;;;;;6180507;23;20009;-71
2022/09/23 12:36:01;;;;;;;9.10;8.20;;;18.90;95.80;;;;;;6181592;23;20005;-70
2022/09/23 12:38:35;;;;;;;11.48;8.35;;;19.10;96.30;;;;;;6183407;23;20045;-72
2022/09/23 12:41:07;;;;;;;13.05;10.27;;;19.10;96.20;;;;;;6182841;23;20022;-72
2022/09/23 12:43:34;;;;;;;12.88;10.35;;;19.10;95.70;;;;;;6183547;23;19997;-72
2022/09/23 12:46:20;;;;;;;15.13;10.20;;;19.10;95.80;;;;;;6182391;23;20437;-72
2022/09/23 12:49:07;;;;;;;11.98;9.90;;;20.00;96.30;;;;;;6182981;23;20101;-72
2022/09/23 12:51:36;;;;;;;10.38;8.98;;;19.70;95.90;;;;;;6182484;23;20005;-72
2022/09/23 12:54:04;;;;;;;11.88;9.85;;;19.00;96.10;;;;;;6182672;23;20342;-73
2022/09/23 12:56:33;;;;;;;9.50;8.50;;;19.10;95.90;;;;;;6183345;23;20016;-72
2022/09/23 12:59:12;;;;;;;14.43;8.80;;;19.20;94.70;;;;;;6181862;23;20420;-72
2022/09/23 13:01:39;;;;;;;9.07;7.97;;;19.20;94.80;;;;;;6183148;23;20335;-72
2022/09/23 13:06:57;;;;;;;;;;;19.40;94.70;;;;;;6183099;23;20509;-72
2022/09/23 13:09:30;;;;;;;9.63;8.20;;;19.20;95.00;;;;;;6183311;23;19904;-71
2022/09/23 13:12:00;;;;;;;11.82;8.90;;;19.40;95.50;;;;;;6182551;23;20003;-72
2022/09/23 13:14:28;;;;;;;9.93;8.82;;;19.30;95.10;;;;;;6183380;23;20080;-72
2022/09/23 13:16:57;;;;;;;9.98;8.88;;;19.30;95.10;;;;;;6182720;23;20025;-73